createdAt,value
2022-08-20T00:02:15.187Z,9.63
2022-08-20T00:05:29.858Z,9.90
2022-08-20T00:08:33.061Z,9.95
2022-08-20T00:11:37.145Z,10.63
2022-08-20T00:14:40.371Z,10.02
2022-08-20T00:17:43.381Z,9.98
2022-08-20T00:20:49.291Z,10.33
2022-08-20T00:23:54.299Z,10.32
2022-08-20T00:26:56.986Z,10.25
2022-08-20T00:30:00.138Z,11.00
2022-08-20T00:33:06.712Z,11.82
2022-08-20T00:36:12.463Z,11.67
2022-08-20T00:39:15.157Z,11.98
2022-08-20T00:42:18.134Z,11.35
2022-08-20T00:45:23.955Z,11.07
2022-08-20T00:48:31.875Z,11.18
2022-08-20T00:51:45.496Z,9.97
2022-08-20T00:54:59.147Z,10.32
2022-08-20T00:58:10.007Z,9.57
2022-08-20T01:01:15.924Z,8.50
2022-08-20T01:04:19.083Z,9.40
2022-08-20T01:07:29.485Z,9.40
2022-08-20T01:10:40.287Z,9.90
2022-08-20T01:13:45.683Z,10.18
2022-08-20T01:16:51.852Z,10.63
2022-08-20T01:20:03.201Z,10.27
2022-08-20T01:23:32.864Z,11.07
2022-08-20T01:26:43.978Z,11.57
2022-08-20T01:29:48.072Z,11.73
2022-08-20T01:32:52.432Z,12.65
2022-08-20T01:35:56.370Z,13.47
2022-08-20T01:39:00.838Z,12.17
2022-08-20T01:42:17.809Z,13.10
2022-08-20T01:45:21.429Z,12.40
2022-08-20T01:48:30.154Z,13.65
2022-08-20T01:51:33.196Z,12.87
2022-08-20T01:54:36.229Z,12.00
2022-08-20T01:57:40.253Z,12.67
2022-08-20T02:00:43.423Z,12.00
2022-08-20T02:03:46.422Z,11.48
2022-08-20T02:06:58.004Z,12.13
2022-08-20T02:10:01.708Z,12.27
2022-08-20T02:13:05.749Z,11.03
2022-08-20T02:16:08.814Z,11.45
2022-08-20T02:19:21.459Z,12.13
2022-08-20T02:22:34.670Z,11.43
2022-08-20T02:25:41.153Z,11.68
2022-08-20T02:28:45.277Z,11.37
2022-08-20T02:32:23.611Z,11.85
2022-08-20T02:35:13.492Z,11.52
2022-08-20T02:38:16.689Z,12.02
2022-08-20T02:41:22.299Z,12.07
2022-08-20T02:44:25.442Z,11.43
2022-08-20T02:47:30.656Z,11.43
2022-08-20T02:50:33.680Z,11.98
2022-08-20T02:53:38.935Z,11.10
2022-08-20T02:56:42.762Z,11.30
2022-08-20T02:59:45.446Z,11.43
2022-08-20T03:02:48.871Z,11.02
2022-08-20T03:05:54.990Z,11.50
2022-08-20T03:08:58.064Z,11.32
2022-08-20T03:12:00.960Z,12.00
2022-08-20T03:15:05.064Z,10.97
2022-08-20T03:18:07.968Z,11.55
2022-08-20T03:21:14.824Z,11.02
2022-08-20T03:24:18.291Z,12.07
2022-08-20T03:27:22.045Z,13.05
2022-08-20T03:30:30.529Z,12.70
2022-08-20T03:33:34.168Z,13.23
2022-08-20T03:36:37.078Z,13.75
2022-08-20T03:39:40.480Z,12.43
2022-08-20T03:42:45.298Z,13.80
2022-08-20T03:45:48.384Z,13.07
2022-08-20T03:48:59.821Z,13.18
2022-08-20T03:52:05.395Z,12.65
2022-08-20T03:55:12.231Z,12.05
2022-08-20T03:58:17.626Z,12.43
2022-08-20T04:01:44.517Z,12.30
2022-08-20T04:04:44.522Z,12.45
2022-08-20T04:07:47.183Z,11.93
2022-08-20T04:10:51.422Z,13.70
2022-08-20T04:13:54.181Z,13.02
2022-08-20T04:16:57.765Z,13.10
2022-08-20T04:20:06.276Z,12.82
2022-08-20T04:23:09.981Z,13.25
2022-08-20T04:26:14.021Z,14.55
2022-08-20T04:29:17.046Z,14.60
2022-08-20T04:32:21.438Z,14.37
2022-08-20T04:35:24.827Z,14.32
2022-08-20T04:38:47.908Z,13.35
2022-08-20T04:41:51.467Z,13.75
2022-08-20T04:44:54.139Z,13.60
2022-08-20T04:48:05.929Z,12.13
2022-08-20T04:51:09.434Z,14.75
2022-08-20T04:54:13.982Z,14.07
2022-08-20T04:57:17.696Z,14.77
2022-08-20T05:00:20.613Z,14.90
2022-08-20T05:03:24.474Z,16.30
2022-08-20T05:06:32.152Z,14.50
2022-08-20T05:09:43.815Z,14.93
2022-08-20T05:12:56.817Z,15.52
2022-08-20T05:16:02.195Z,14.43
2022-08-20T05:19:07.021Z,14.13
2022-08-20T05:22:09.917Z,11.23
2022-08-20T05:25:13.207Z,11.12
2022-08-20T05:28:22.187Z,10.82
2022-08-20T05:31:32.357Z,10.93
2022-08-20T05:34:36.605Z,11.60
2022-08-20T05:37:43.810Z,12.23
2022-08-20T05:40:47.490Z,13.07
2022-08-20T05:43:51.592Z,12.30
2022-08-20T05:46:54.412Z,12.37
2022-08-20T05:49:57.703Z,12.70
2022-08-20T05:53:01.720Z,14.38
2022-08-20T05:56:04.924Z,13.75
2022-08-20T05:59:10.032Z,16.10
2022-08-20T06:02:31.537Z,15.77
2022-08-20T06:05:35.024Z,16.77
2022-08-20T06:08:38.274Z,16.58
2022-08-20T06:11:44.729Z,18.30
2022-08-20T06:14:47.527Z,17.45
2022-08-20T06:17:58.153Z,18.70
2022-08-20T06:21:02.473Z,17.57
2022-08-20T06:24:06.931Z,18.85
2022-08-20T06:27:15.884Z,18.05
2022-08-20T06:30:19.065Z,17.67
2022-08-20T06:33:23.873Z,18.00
2022-08-20T06:36:27.648Z,17.77
2022-08-20T06:39:31.477Z,17.77
2022-08-20T06:42:34.596Z,16.90
2022-08-20T06:45:39.088Z,17.65
2022-08-20T06:48:42.794Z,17.40
2022-08-20T06:51:45.763Z,16.73
2022-08-20T06:54:54.525Z,16.30
2022-08-20T06:58:03.014Z,17.12
2022-08-20T07:01:10.130Z,16.25
2022-08-20T07:04:13.142Z,16.30
2022-08-20T07:07:18.131Z,17.20
2022-08-20T07:10:22.811Z,17.23
2022-08-20T07:13:25.965Z,16.95
2022-08-20T07:16:29.715Z,16.33
2022-08-20T07:19:33.503Z,17.03
2022-08-20T07:22:37.149Z,17.63
2022-08-20T07:25:42.531Z,18.33
2022-08-20T07:28:46.001Z,17.62
2022-08-20T07:32:07.667Z,19.00
2022-08-20T07:35:18.579Z,18.27
2022-08-20T07:38:24.945Z,18.17
2022-08-20T07:41:27.720Z,17.58
2022-08-20T07:44:31.402Z,17.05
2022-08-20T07:47:36.302Z,16.70
2022-08-20T07:50:39.860Z,18.97
2022-08-20T07:53:42.684Z,17.03
2022-08-20T07:56:45.658Z,17.92
2022-08-20T07:59:49.025Z,18.80
2022-08-20T08:02:53.053Z,18.87
2022-08-20T08:05:57.276Z,17.43
2022-08-20T08:09:05.163Z,15.67
2022-08-20T08:12:08.309Z,18.60
2022-08-20T08:15:15.847Z,17.87
2022-08-20T08:18:31.920Z,18.23
2022-08-20T08:21:34.962Z,16.67
2022-08-20T08:24:39.705Z,16.17
2022-08-20T08:27:43.914Z,16.10
2022-08-20T08:30:49.353Z,16.87
2022-08-20T08:33:53.962Z,16.83
2022-08-20T08:36:59.149Z,17.30
2022-08-20T08:40:02.028Z,16.67
2022-08-20T08:43:08.353Z,18.25
2022-08-20T08:46:12.997Z,17.95
2022-08-20T08:49:23.485Z,17.50
2022-08-20T08:52:32.328Z,18.60
2022-08-20T08:55:35.861Z,18.13
2022-08-20T08:58:38.590Z,18.62
2022-08-20T09:01:54.914Z,19.65
2022-08-20T09:05:02.388Z,17.85
2022-08-20T09:08:12.590Z,17.30
2022-08-20T09:11:20.491Z,16.57
2022-08-20T09:14:25.193Z,17.77
2022-08-20T09:17:27.787Z,15.73
2022-08-20T09:20:31.427Z,17.52
2022-08-20T09:23:35.446Z,15.80
2022-08-20T09:26:39.257Z,15.63
2022-08-20T09:29:42.310Z,15.45
2022-08-20T09:32:46.591Z,14.18
2022-08-20T09:35:49.184Z,13.48
2022-08-20T09:38:52.653Z,12.70
2022-08-20T09:41:55.515Z,13.63
2022-08-20T09:44:59.980Z,13.45
2022-08-20T09:48:03.547Z,12.07
2022-08-20T09:51:06.666Z,12.25
2022-08-20T09:54:09.420Z,12.70
2022-08-20T09:57:13.234Z,12.90
2022-08-20T10:00:17.030Z,12.63
2022-08-20T10:03:20.389Z,12.50
2022-08-20T10:06:23.038Z,13.25
2022-08-20T10:09:26.140Z,12.50
2022-08-20T10:12:29.688Z,12.00
2022-08-20T10:15:32.814Z,12.02
2022-08-20T10:18:36.899Z,12.37
2022-08-20T10:21:40.408Z,11.95
2022-08-20T10:24:44.365Z,10.73
2022-08-20T10:27:48.799Z,11.67
2022-08-20T10:30:51.481Z,11.38
2022-08-20T10:33:55.277Z,11.30
2022-08-20T10:36:59.223Z,11.88
2022-08-20T10:40:02.661Z,11.37
2022-08-20T10:43:05.415Z,11.87
2022-08-20T10:46:10.951Z,11.68
2022-08-20T10:49:13.616Z,12.73
2022-08-20T10:52:16.677Z,11.93
2022-08-20T10:55:19.393Z,12.53
2022-08-20T10:58:23.925Z,12.90
2022-08-20T11:01:32.840Z,12.30
2022-08-20T11:04:37.300Z,11.38
2022-08-20T11:07:55.439Z,11.10
2022-08-20T11:10:59.614Z,10.37
2022-08-20T11:14:02.468Z,8.87
2022-08-20T11:17:06.157Z,9.23
2022-08-20T11:20:13.864Z,8.13
2022-08-20T11:23:19.012Z,8.10
2022-08-20T11:26:25.379Z,7.23
2022-08-20T11:29:33.833Z,8.00
2022-08-20T11:32:37.090Z,8.30
2022-08-20T11:35:48.283Z,7.95
2022-08-20T11:38:53.535Z,8.85
2022-08-20T11:41:56.522Z,7.90
2022-08-20T11:44:59.330Z,8.67
2022-08-20T11:48:02.299Z,7.28
2022-08-20T11:51:05.447Z,7.20
2022-08-20T11:54:08.433Z,7.30
2022-08-20T11:57:11.456Z,6.70
2022-08-20T12:00:21.509Z,7.37
2022-08-20T12:03:37.607Z,6.05
2022-08-20T12:06:40.530Z,5.53
2022-08-20T12:09:51.090Z,6.20
2022-08-20T12:12:55.391Z,5.60
2022-08-20T12:15:58.670Z,5.20
2022-08-20T12:19:01.386Z,5.65
2022-08-20T12:22:20.445Z,5.85
2022-08-20T12:25:27.254Z,6.37
2022-08-20T12:28:31.676Z,5.70
2022-08-20T12:31:34.416Z,5.90
2022-08-20T12:34:39.177Z,6.12
2022-08-20T12:37:42.898Z,4.90
2022-08-20T12:40:46.183Z,5.35
2022-08-20T12:43:49.415Z,5.13
2022-08-20T12:46:55.277Z,5.67
2022-08-20T12:50:08.137Z,5.72
2022-08-20T12:53:11.182Z,5.07
2022-08-20T12:56:14.273Z,5.10
2022-08-20T12:59:17.312Z,4.63
2022-08-20T13:02:20.145Z,5.20
2022-08-20T13:05:23.849Z,4.37
2022-08-20T13:08:26.572Z,4.53
2022-08-20T13:11:29.788Z,4.53
2022-08-20T13:14:32.580Z,3.90
2022-08-20T13:17:38.590Z,4.27
2022-08-20T13:20:42.065Z,5.07
2022-08-20T13:23:46.462Z,4.82
2022-08-20T13:26:49.919Z,4.70
2022-08-20T13:29:58.615Z,4.87
2022-08-20T13:33:02.254Z,4.77
2022-08-20T13:36:05.489Z,4.95
2022-08-20T13:39:08.346Z,4.55
2022-08-20T13:42:14.180Z,4.85
2022-08-20T13:45:17.605Z,4.83
2022-08-20T13:48:20.707Z,4.60
2022-08-20T13:51:27.225Z,4.18
2022-08-20T13:54:33.555Z,4.65
2022-08-20T13:57:38.460Z,4.15
2022-08-20T14:00:42.018Z,4.10
2022-08-20T14:03:46.719Z,4.60
2022-08-20T14:06:50.779Z,5.18
2022-08-20T14:09:58.978Z,4.47
2022-08-20T14:13:03.630Z,4.70
2022-08-20T14:16:06.702Z,5.00
2022-08-20T14:19:24.182Z,4.77
2022-08-20T14:22:27.576Z,4.43
2022-08-20T14:25:32.702Z,4.93
2022-08-20T14:28:35.681Z,4.90
2022-08-20T14:31:38.336Z,4.90
2022-08-20T14:34:42.567Z,5.13
2022-08-20T14:37:55.020Z,5.57
2022-08-20T14:40:58.211Z,5.43
2022-08-20T14:44:00.897Z,5.75
2022-08-20T14:47:22.675Z,5.20
2022-08-20T14:50:31.643Z,6.67
2022-08-20T14:53:39.831Z,4.87
2022-08-20T14:56:43.023Z,4.53
2022-08-20T14:59:47.084Z,4.93
2022-08-20T15:02:49.933Z,5.07
2022-08-20T15:05:53.162Z,4.65
2022-08-20T15:08:57.493Z,4.23
2022-08-20T15:12:00.625Z,4.72
2022-08-20T15:15:15.528Z,4.45
2022-08-20T15:18:25.215Z,4.40
2022-08-20T15:21:28.255Z,4.28
2022-08-20T15:24:31.474Z,4.15
2022-08-20T15:27:36.968Z,4.80
2022-08-20T15:30:41.857Z,4.87
2022-08-20T15:33:44.479Z,4.87
2022-08-20T15:36:47.510Z,5.45
2022-08-20T15:39:52.206Z,5.70
2022-08-20T15:42:55.554Z,5.75
2022-08-20T15:46:01.394Z,5.75
2022-08-20T15:49:04.819Z,5.80
2022-08-20T15:52:07.690Z,5.50
2022-08-20T15:55:14.817Z,5.43
2022-08-20T15:58:39.008Z,5.62
2022-08-20T16:02:01.443Z,5.68
2022-08-20T16:05:41.514Z,5.00
2022-08-20T16:09:32.647Z,5.60
2022-08-20T16:12:42.591Z,5.47
2022-08-20T16:15:49.459Z,5.75
2022-08-20T16:18:54.429Z,5.78
2022-08-20T16:21:58.491Z,5.97
2022-08-20T16:25:04.320Z,5.70
2022-08-20T16:28:33.061Z,6.00
2022-08-20T16:31:43.150Z,5.78
2022-08-20T16:34:59.246Z,6.00
2022-08-20T16:38:12.494Z,6.30
2022-08-20T16:41:21.268Z,5.95
2022-08-20T16:44:49.111Z,5.90
2022-08-20T16:47:57.388Z,6.12
2022-08-20T16:51:17.241Z,6.05
2022-08-20T16:54:29.300Z,6.43
2022-08-20T16:57:34.274Z,6.12
2022-08-20T17:00:44.844Z,6.40
2022-08-20T17:03:50.651Z,7.05
2022-08-20T17:06:53.606Z,6.55
2022-08-20T17:10:13.421Z,7.03
2022-08-20T17:13:16.162Z,6.82
2022-08-20T17:16:21.718Z,7.05
2022-08-20T17:19:31.281Z,6.97
2022-08-20T17:22:43.476Z,6.50
2022-08-20T17:25:56.627Z,7.00
2022-08-20T17:29:03.392Z,7.15
2022-08-20T17:32:16.719Z,7.53
2022-08-20T17:35:27.918Z,7.22
2022-08-20T17:39:06.071Z,7.00
2022-08-20T17:42:15.068Z,7.07
2022-08-20T17:45:44.154Z,7.53
2022-08-20T17:48:49.046Z,6.95
2022-08-20T17:51:55.289Z,7.32
2022-08-20T17:54:59.697Z,7.37
2022-08-20T17:58:06.984Z,7.50
2022-08-20T18:01:14.970Z,7.87
2022-08-20T18:04:18.125Z,7.95
2022-08-20T18:07:25.269Z,7.70
2022-08-20T18:10:29.890Z,7.80
2022-08-20T18:14:18.630Z,7.93
2022-08-20T18:17:49.368Z,7.43
2022-08-20T18:20:51.911Z,7.50
2022-08-20T18:24:18.790Z,7.78
2022-08-20T18:27:25.540Z,7.30
2022-08-20T18:30:28.622Z,7.53
2022-08-20T18:33:31.271Z,7.32
2022-08-20T18:36:35.720Z,7.93
2022-08-20T18:39:42.141Z,7.20
2022-08-20T18:42:45.527Z,7.78
2022-08-20T18:45:49.406Z,8.27
2022-08-20T18:49:01.717Z,8.32
2022-08-20T18:52:26.430Z,8.30
2022-08-20T18:55:37.098Z,7.95
2022-08-20T18:59:02.117Z,7.80
2022-08-20T19:02:20.756Z,5.23
2022-08-20T19:05:37.044Z,4.80
2022-08-20T19:08:50.316Z,3.70
2022-08-20T19:11:57.169Z,3.87
2022-08-20T19:15:24.202Z,3.30
2022-08-20T19:18:44.456Z,3.27
2022-08-20T19:21:48.368Z,3.00
2022-08-20T19:24:56.796Z,3.35
2022-08-20T19:28:04.813Z,2.92
2022-08-20T19:31:21.890Z,3.25
2022-08-20T19:34:26.549Z,3.30
2022-08-20T19:37:44.472Z,3.55
2022-08-20T19:41:08.894Z,3.30
2022-08-20T19:44:25.700Z,3.20
2022-08-20T19:47:38.627Z,3.17
2022-08-20T19:51:12.570Z,3.70
2022-08-20T19:54:28.120Z,3.65
2022-08-20T19:57:31.040Z,3.92
2022-08-20T20:00:44.959Z,3.40
2022-08-20T20:03:57.745Z,3.72
2022-08-20T20:07:00.654Z,3.50
2022-08-20T20:10:08.169Z,3.87
2022-08-20T20:13:15.147Z,3.83
2022-08-20T20:16:20.966Z,3.55
2022-08-20T20:19:27.203Z,3.78
2022-08-20T20:22:34.148Z,3.40
2022-08-20T20:25:43.905Z,3.53
2022-08-20T20:28:50.254Z,3.58
2022-08-20T20:31:56.861Z,3.70
2022-08-20T20:35:03.051Z,3.62
2022-08-20T20:38:10.277Z,3.83
2022-08-20T20:41:22.523Z,3.40
2022-08-20T20:44:37.718Z,4.10
2022-08-20T20:47:40.879Z,4.03
2022-08-20T20:50:43.677Z,3.85
2022-08-20T20:53:54.596Z,3.63
2022-08-20T20:57:37.744Z,4.20
2022-08-20T21:00:41.416Z,3.85
2022-08-20T21:03:44.085Z,3.85
2022-08-20T21:06:47.650Z,3.45
2022-08-20T21:09:52.366Z,4.07
2022-08-20T21:12:55.450Z,3.62
2022-08-20T21:15:58.376Z,3.67
2022-08-20T21:19:04.700Z,3.85
2022-08-20T21:22:07.443Z,3.65
2022-08-20T21:25:15.157Z,2.80
2022-08-20T21:28:18.008Z,3.08
2022-08-20T21:31:21.081Z,3.00
2022-08-20T21:34:23.861Z,2.55
2022-08-20T21:37:26.876Z,2.55
2022-08-20T21:40:29.644Z,2.50
2022-08-20T21:43:33.227Z,2.17
2022-08-20T21:46:35.969Z,2.40
2022-08-20T21:49:38.890Z,2.10
2022-08-20T21:52:43.962Z,2.17
2022-08-20T21:56:02.593Z,1.90
2022-08-20T21:59:08.826Z,1.95
2022-08-20T22:02:11.942Z,2.40
2022-08-20T22:05:16.507Z,2.20
2022-08-20T22:08:20.867Z,2.17
2022-08-20T22:11:28.878Z,2.63
2022-08-20T22:14:31.686Z,2.10
2022-08-20T22:17:34.703Z,2.65
2022-08-20T22:20:37.413Z,2.15
2022-08-20T22:23:40.705Z,2.30
2022-08-20T22:26:43.946Z,2.67
2022-08-20T22:29:47.008Z,2.67
2022-08-20T22:32:51.425Z,2.20
2022-08-20T22:35:58.841Z,2.30
2022-08-20T22:39:01.516Z,2.30
2022-08-20T22:42:04.744Z,2.17
2022-08-20T22:45:13.454Z,2.72
2022-08-20T22:48:20.329Z,2.15
2022-08-20T22:51:34.987Z,2.30
2022-08-20T22:54:39.158Z,2.35
2022-08-20T22:57:47.562Z,2.07
2022-08-20T23:00:51.512Z,1.90
2022-08-20T23:04:02.040Z,2.28
2022-08-20T23:07:09.191Z,1.90
2022-08-20T23:10:12.003Z,1.80
2022-08-20T23:13:14.978Z,2.10
2022-08-20T23:16:18.636Z,1.62
2022-08-20T23:19:22.887Z,1.80
2022-08-20T23:22:26.106Z,1.60
2022-08-20T23:25:29.135Z,1.40
2022-08-20T23:28:32.509Z,1.63
2022-08-20T23:31:35.516Z,1.52
2022-08-20T23:34:38.350Z,1.52
2022-08-20T23:37:45.410Z,1.60
2022-08-20T23:40:48.158Z,1.50
2022-08-20T23:43:51.467Z,1.42
2022-08-20T23:46:59.883Z,1.55
2022-08-20T23:50:03.888Z,1.70
2022-08-20T23:53:06.782Z,1.60
2022-08-20T23:56:10.786Z,1.60
2022-08-20T23:59:13.387Z,1.60
